Terminal Aerodrome Forecast
Issued by NWS

Home | Current Version | Previous Version | Text Only | Print | Product List | Glossary On
Versions: 1 2 3 4 5 6 7 8 9 10 11 12 13 14 15
000
FTAK31 PANC 072337
TAFADL
TAF
PADL 072337Z 0800/0824 36015G25KT P6SM FEW250
     FM080600 34015G25KT P6SM SKC
     FM081200 34015KT P6SM SKC
     FM081800 34010G20KT P6SM FEW100 BKN200=

USA.gov is the U.S. government's official web portal to all federal, state and local government web resources and services.